Time,TemperatureF,DewpointF,PressureIn,WindDirection,WindDirectionDegrees,WindSpeedMPH,WindSpeedGustMPH,Humidity,HourlyPrecipIn,Conditions,Clouds,dailyrainin,SoftwareType,DateUTC
2013-01-12 00:01:00,44.1,41.9,30.10,North,360,4.0,5.0,92,0.00,,,0.00,Wunderground v.1.15,2013-01-12 05:01:00,
2013-01-12 00:04:00,44.1,41.9,30.10,North,360,4.0,5.0,92,0.00,,,0.00,Wunderground v.1.15,2013-01-12 05:04:00,
2013-01-12 00:06:00,44.1,41.9,30.10,North,360,3.0,5.0,92,0.00,,,0.00,Wunderground v.1.15,2013-01-12 05:06:00,
2013-01-12 00:10:00,44.1,41.9,30.10,North,360,4.0,6.0,92,0.00,,,0.00,Wunderground v.1.15,2013-01-12 05:10:00,
2013-01-12 00:12:00,44.1,41.9,30.10,North,360,4.0,6.0,92,0.00,,,0.00,Wunderground v.1.15,2013-01-12 05:12:00,
2013-01-12 00:16:00,44.1,41.9,30.10,North,360,4.0,6.0,92,0.00,,,0.00,Wunderground v.1.15,2013-01-12 05:16:00,
2013-01-12 00:18:00,44.1,41.9,30.10,North,360,4.0,6.0,92,0.00,,,0.00,Wunderground v.1.15,2013-01-12 05:18:00,
2013-01-12 00:22:00,43.9,41.7,30.09,North,360,4.0,4.0,92,0.00,,,0.00,Wunderground v.1.15,2013-01-12 05:22:00,
2013-01-12 00:24:00,43.9,41.7,30.10,North,360,4.0,4.0,92,0.00,,,0.00,Wunderground v.1.15,2013-01-12 05:24:00,
2013-01-12 00:26:00,43.9,41.7,30.09,North,360,4.0,6.0,92,0.00,,,0.00,Wunderground v.1.15,2013-01-12 05:26:00,
2013-01-12 00:28:00,43.8,41.6,30.10,North,360,4.0,6.0,92,0.00,,,0.00,Wunderground v.1.15,2013-01-12 05:28:00,
2013-01-12 00:34:00,43.8,41.9,30.10,North,360,4.0,6.0,93,0.00,,,0.00,Wunderground v.1.15,2013-01-12 05:34:00,
2013-01-12 00:36:00,43.8,41.9,30.10,North,360,5.0,6.0,93,0.00,,,0.00,Wunderground v.1.15,2013-01-12 05:36:00,
2013-01-12 00:38:00,43.9,42.0,30.10,North,360,4.0,6.0,93,0.00,,,0.00,Wunderground v.1.15,2013-01-12 05:38:00,
2013-01-12 00:40:00,43.8,41.9,30.09,North,360,4.0,4.0,93,0.00,,,0.00,Wunderground v.1.15,2013-01-12 05:40:00,
2013-01-12 00:46:00,43.8,41.9,30.09,North,360,3.0,4.0,93,0.00,,,0.00,Wunderground v.1.15,2013-01-12 05:46:00,
2013-01-12 00:48:00,43.8,41.9,30.09,North,360,3.0,4.0,93,0.00,,,0.00,Wunderground v.1.15,2013-01-12 05:48:00,
2013-01-12 00:50:00,43.9,42.0,30.09,North,360,3.0,3.0,93,0.00,,,0.00,Wunderground v.1.15,2013-01-12 05:50:00,
2013-01-12 00:54:00,43.9,42.0,30.09,North,360,2.0,3.0,93,0.00,,,0.00,Wunderground v.1.15,2013-01-12 05:54:00,
2013-01-12 00:56:00,43.9,42.0,30.09,North,360,2.0,4.0,93,0.00,,,0.00,Wunderground v.1.15,2013-01-12 05:56:00,
2013-01-12 01:00:00,43.8,41.9,30.09,North,360,2.0,4.0,93,0.00,,,0.00,Wunderground v.1.15,2013-01-12 06:00:00,
2013-01-12 01:02:00,43.8,41.9,30.09,North,360,3.0,4.0,93,0.00,,,0.00,Wunderground v.1.15,2013-01-12 06:02:00,
2013-01-12 01:06:00,43.8,41.9,30.10,North,360,3.0,4.0,93,0.00,,,0.00,Wunderground v.1.15,2013-01-12 06:06:00,
2013-01-12 01:08:00,43.8,41.9,30.10,North,360,3.0,4.0,93,0.00,,,0.00,Wunderground v.1.15,2013-01-12 06:08:00,
2013-01-12 01:12:00,43.8,41.9,30.10,North,360,3.0,3.0,93,0.00,,,0.00,Wunderground v.1.15,2013-01-12 06:12:00,
2013-01-12 01:14:00,43.8,41.9,30.10,North,360,3.0,3.0,93,0.00,,,0.00,Wunderground v.1.15,2013-01-12 06:14:00,
2013-01-12 01:16:00,43.8,41.9,30.10,North,360,3.0,3.0,93,0.00,,,0.00,Wunderground v.1.15,2013-01-12 06:16:00,
2013-01-12 01:18:00,43.8,41.9,30.10,North,360,3.0,3.0,93,0.00,,,0.00,Wunderground v.1.15,2013-01-12 06:18:00,
2013-01-12 01:20:00,43.9,42.0,30.10,North,360,3.0,3.0,93,0.00,,,0.00,Wunderground v.1.15,2013-01-12 06:20:00,
2013-01-12 01:22:00,44.0,42.1,30.10,North,360,3.0,4.0,93,0.00,,,0.00,Wunderground v.1.15,2013-01-12 06:22:00,
2013-01-12 01:24:00,44.0,42.1,30.10,North,360,3.0,4.0,93,0.00,,,0.00,Wunderground v.1.15,2013-01-12 06:24:00,
2013-01-12 01:28:00,43.9,42.0,30.10,North,360,3.0,4.0,93,0.00,,,0.00,Wunderground v.1.15,2013-01-12 06:28:00,
2013-01-12 01:30:00,43.9,42.0,30.10,North,360,3.0,4.0,93,0.00,,,0.00,Wunderground v.1.15,2013-01-12 06:30:00,
2013-01-12 01:32:00,43.9,42.0,30.10,North,360,3.0,4.0,93,0.00,,,0.00,Wunderground v.1.15,2013-01-12 06:32:00,
2013-01-12 01:36:00,43.9,42.0,30.10,North,360,2.0,4.0,93,0.00,,,0.00,Wunderground v.1.15,2013-01-12 06:36:00,
2013-01-12 01:39:00,43.8,41.9,30.10,North,360,3.0,3.0,93,0.00,,,0.00,Wunderground v.1.15,2013-01-12 06:39:00,
2013-01-12 01:41:00,43.8,41.9,30.10,North,360,3.0,3.0,93,0.00,,,0.00,Wunderground v.1.15,2013-01-12 06:41:00,
2013-01-12 01:46:00,43.8,41.9,30.11,North,360,3.0,4.0,93,0.00,,,0.00,Wunderground v.1.15,2013-01-12 06:46:00,
2013-01-12 01:48:00,43.8,41.9,30.11,North,360,3.0,4.0,93,0.00,,,0.00,Wunderground v.1.15,2013-01-12 06:48:00,
2013-01-12 01:50:00,43.7,41.8,30.11,North,360,3.0,4.0,93,0.00,,,0.00,Wunderground v.1.15,2013-01-12 06:50:00,
2013-01-12 01:54:00,43.6,41.7,30.11,North,360,3.0,4.0,93,0.00,,,0.00,Wunderground v.1.15,2013-01-12 06:54:00,
2013-01-12 01:55:00,43.6,41.7,30.11,North,360,3.0,4.0,93,0.00,,,0.00,Wunderground v.1.15,2013-01-12 06:55:00,
2013-01-12 01:58:00,43.5,41.6,30.11,North,360,3.0,4.0,93,0.00,,,0.00,Wunderground v.1.15,2013-01-12 06:58:00,
2013-01-12 02:04:00,43.4,41.5,30.11,North,360,3.0,4.0,93,0.00,,,0.00,Wunderground v.1.15,2013-01-12 07:04:00,
2013-01-12 02:06:00,43.4,41.5,30.11,North,360,3.0,4.0,93,0.00,,,0.00,Wunderground v.1.15,2013-01-12 07:06:00,
2013-01-12 02:08:00,43.3,41.4,30.11,North,360,3.0,4.0,93,0.00,,,0.00,Wunderground v.1.15,2013-01-12 07:08:00,
2013-01-12 02:09:00,43.4,41.5,30.11,North,360,3.0,3.0,93,0.00,,,0.00,Wunderground v.1.15,2013-01-12 07:09:00,
2013-01-12 02:16:00,43.5,41.6,30.11,North,360,2.0,3.0,93,0.00,,,0.00,Wunderground v.1.15,2013-01-12 07:16:00,
2013-01-12 02:18:00,43.6,41.7,30.11,North,360,2.0,3.0,93,0.00,,,0.00,Wunderground v.1.15,2013-01-12 07:18:00,
2013-01-12 02:20:00,43.6,41.7,30.10,North,360,2.0,3.0,93,0.00,,,0.00,Wunderground v.1.15,2013-01-12 07:20:00,
2013-01-12 02:24:00,43.6,41.7,30.11,North,360,1.0,3.0,93,0.00,,,0.00,Wunderground v.1.15,2013-01-12 07:24:00,
2013-01-12 02:28:00,43.7,41.8,30.11,North,360,2.0,3.0,93,0.00,,,0.00,Wunderground v.1.15,2013-01-12 07:28:00,
2013-01-12 02:32:00,43.8,41.9,30.11,North,360,2.0,3.0,93,0.00,,,0.00,Wunderground v.1.15,2013-01-12 07:32:00,
2013-01-12 02:34:00,43.8,41.9,30.11,North,360,2.0,3.0,93,0.00,,,0.00,Wunderground v.1.15,2013-01-12 07:34:00,
2013-01-12 02:36:00,43.7,41.8,30.12,North,360,2.0,3.0,93,0.00,,,0.00,Wunderground v.1.15,2013-01-12 07:36:00,
2013-01-12 02:38:00,43.7,41.8,30.12,North,360,2.0,3.0,93,0.00,,,0.00,Wunderground v.1.15,2013-01-12 07:38:00,
2013-01-12 02:44:00,43.8,41.9,30.12,North,360,2.0,2.0,93,0.00,,,0.00,Wunderground v.1.15,2013-01-12 07:44:00,
2013-01-12 02:48:00,43.9,42.3,30.12,North,360,2.0,2.0,94,0.00,,,0.00,Wunderground v.1.15,2013-01-12 07:48:00,
2013-01-12 02:50:00,44.0,42.4,30.12,North,360,2.0,2.0,94,0.00,,,0.00,Wunderground v.1.15,2013-01-12 07:50:00,
2013-01-12 02:56:00,43.9,42.0,30.12,North,360,2.0,2.0,93,0.00,,,0.00,Wunderground v.1.15,2013-01-12 07:56:00,
2013-01-12 02:58:00,44.0,42.1,30.12,North,360,2.0,2.0,93,0.00,,,0.00,Wunderground v.1.15,2013-01-12 07:58:00,
2013-01-12 03:01:00,44.0,42.1,30.12,North,360,2.0,2.0,93,0.00,,,0.00,Wunderground v.1.15,2013-01-12 08:01:00,
2013-01-12 03:04:00,44.0,42.1,30.12,North,360,2.0,3.0,93,0.00,,,0.00,Wunderground v.1.15,2013-01-12 08:04:00,
2013-01-12 03:06:00,44.0,42.4,30.12,North,360,2.0,3.0,94,0.00,,,0.00,Wunderground v.1.15,2013-01-12 08:06:00,
2013-01-12 03:10:00,44.1,42.2,30.12,North,360,2.0,2.0,93,0.00,,,0.00,Wunderground v.1.15,2013-01-12 08:10:00,
2013-01-12 03:12:00,44.0,42.1,30.11,North,360,2.0,2.0,93,0.00,,,0.00,Wunderground v.1.15,2013-01-12 08:12:00,
2013-01-12 03:14:00,44.0,42.1,30.12,North,360,2.0,3.0,93,0.00,,,0.00,Wunderground v.1.15,2013-01-12 08:14:00,
2013-01-12 03:15:00,44.0,42.1,30.12,North,360,2.0,3.0,93,0.00,,,0.00,Wunderground v.1.15,2013-01-12 08:15:00,
2013-01-12 03:22:00,44.0,42.1,30.11,North,360,2.0,2.0,93,0.00,,,0.00,Wunderground v.1.15,2013-01-12 08:22:00,
2013-01-12 03:24:00,44.0,42.1,30.11,North,360,2.0,3.0,93,0.00,,,0.00,Wunderground v.1.15,2013-01-12 08:24:00,
2013-01-12 03:28:00,43.9,42.0,30.11,North,360,2.0,3.0,93,0.00,,,0.00,Wunderground v.1.15,2013-01-12 08:28:00,
2013-01-12 03:30:00,43.9,42.0,30.11,North,360,3.0,3.0,93,0.00,,,0.00,Wunderground v.1.15,2013-01-12 08:30:00,
2013-01-12 03:36:00,43.8,41.9,30.11,North,360,3.0,4.0,93,0.00,,,0.00,Wunderground v.1.15,2013-01-12 08:36:00,
2013-01-12 03:38:00,43.9,42.0,30.11,North,360,2.0,4.0,93,0.00,,,0.00,Wunderground v.1.15,2013-01-12 08:38:00,
2013-01-12 03:42:00,43.8,41.9,30.11,North,360,2.0,4.0,93,0.00,,,0.00,Wunderground v.1.15,2013-01-12 08:42:00,
2013-01-12 03:44:00,43.8,41.9,30.11,North,360,2.0,4.0,93,0.00,,,0.00,Wunderground v.1.15,2013-01-12 08:44:00,
2013-01-12 03:48:00,43.9,42.0,30.11,North,360,2.0,4.0,93,0.00,,,0.00,Wunderground v.1.15,2013-01-12 08:48:00,
2013-01-12 03:52:00,44.0,42.1,30.11,North,360,2.0,2.0,93,0.00,,,0.00,Wunderground v.1.15,2013-01-12 08:52:00,
2013-01-12 03:54:00,44.0,42.1,30.11,North,360,1.0,3.0,93,0.00,,,0.00,Wunderground v.1.15,2013-01-12 08:54:00,
2013-01-12 03:56:00,44.0,42.1,30.11,North,360,1.0,3.0,93,0.00,,,0.00,Wunderground v.1.15,2013-01-12 08:56:00,
2013-01-12 04:01:00,44.1,42.2,30.11,North,360,1.0,2.0,93,0.00,,,0.00,Wunderground v.1.15,2013-01-12 09:01:00,
2013-01-12 04:04:00,44.1,42.2,30.11,North,360,1.0,2.0,93,0.00,,,0.00,Wunderground v.1.15,2013-01-12 09:04:00,
2013-01-12 04:06:00,44.0,42.1,30.11,North,360,1.0,2.0,93,0.00,,,0.00,Wunderground v.1.15,2013-01-12 09:06:00,
2013-01-12 04:10:00,44.0,42.1,30.11,North,360,1.0,1.0,93,0.00,,,0.00,Wunderground v.1.15,2013-01-12 09:10:00,
2013-01-12 04:14:00,44.0,42.1,30.11,North,360,0.0,1.0,93,0.00,,,0.00,Wunderground v.1.15,2013-01-12 09:14:00,
2013-01-12 04:15:00,44.0,42.1,30.11,North,360,0.0,3.0,93,0.00,,,0.00,Wunderground v.1.15,2013-01-12 09:15:00,
2013-01-12 04:22:00,43.9,42.0,30.11,North,360,1.0,3.0,93,0.00,,,0.00,Wunderground v.1.15,2013-01-12 09:22:00,
2013-01-12 04:24:00,43.9,42.0,30.11,North,360,2.0,3.0,93,0.00,,,0.00,Wunderground v.1.15,2013-01-12 09:24:00,
2013-01-12 04:30:00,44.0,42.1,30.11,North,360,2.0,4.0,93,0.00,,,0.00,Wunderground v.1.15,2013-01-12 09:30:00,
2013-01-12 04:31:00,44.0,42.1,30.11,North,360,2.0,4.0,93,0.00,,,0.00,Wunderground v.1.15,2013-01-12 09:31:00,
2013-01-12 04:36:00,43.8,41.9,30.11,North,360,2.0,4.0,93,0.00,,,0.00,Wunderground v.1.15,2013-01-12 09:36:00,
2013-01-12 04:38:00,43.8,41.9,30.11,North,360,2.0,4.0,93,0.00,,,0.00,Wunderground v.1.15,2013-01-12 09:38:00,
2013-01-12 04:42:00,43.8,41.9,30.11,North,360,2.0,2.0,93,0.00,,,0.00,Wunderground v.1.15,2013-01-12 09:42:00,
2013-01-12 04:46:00,43.7,41.8,30.11,North,360,2.0,2.0,93,0.00,,,0.00,Wunderground v.1.15,2013-01-12 09:46:00,
2013-01-12 04:47:00,43.8,41.9,30.11,North,360,2.0,3.0,93,0.00,,,0.00,Wunderground v.1.15,2013-01-12 09:47:00,
2013-01-12 04:54:00,44.0,42.4,30.11,North,360,2.0,3.0,94,0.00,,,0.00,Wunderground v.1.15,2013-01-12 09:54:00,
2013-01-12 04:56:00,44.0,42.4,30.11,North,360,2.0,3.0,94,0.00,,,0.00,Wunderground v.1.15,2013-01-12 09:56:00,
2013-01-12 04:58:00,44.0,42.4,30.11,North,360,3.0,3.0,94,0.00,,,0.00,Wunderground v.1.15,2013-01-12 09:58:00,
2013-01-12 05:02:00,44.1,42.5,30.11,North,360,3.0,3.0,94,0.00,,,0.00,Wunderground v.1.15,2013-01-12 10:02:00,
2013-01-12 05:04:00,44.1,42.5,30.11,North,360,3.0,3.0,94,0.00,,,0.00,Wunderground v.1.15,2013-01-12 10:04:00,
2013-01-12 05:10:00,43.9,42.0,30.11,North,360,2.0,3.0,93,0.00,,,0.00,Wunderground v.1.15,2013-01-12 10:10:00,
2013-01-12 05:14:00,43.8,41.9,30.11,North,360,2.0,3.0,93,0.00,,,0.00,Wunderground v.1.15,2013-01-12 10:14:00,
2013-01-12 05:16:00,43.9,42.3,30.11,North,360,3.0,3.0,94,0.00,,,0.00,Wunderground v.1.15,2013-01-12 10:16:00,
2013-01-12 05:22:00,43.7,41.8,30.11,North,360,2.0,3.0,93,0.00,,,0.00,Wunderground v.1.15,2013-01-12 10:22:00,
2013-01-12 05:24:00,43.6,41.7,30.11,North,360,2.0,3.0,93,0.00,,,0.00,Wunderground v.1.15,2013-01-12 10:24:00,
2013-01-12 05:26:00,43.5,41.6,30.11,North,360,2.0,3.0,93,0.00,,,0.00,Wunderground v.1.15,2013-01-12 10:26:00,
2013-01-12 05:28:00,43.5,41.6,30.12,North,360,2.0,3.0,93,0.00,,,0.00,Wunderground v.1.15,2013-01-12 10:28:00,
2013-01-12 05:32:00,43.4,41.8,30.12,North,360,2.0,3.0,94,0.00,,,0.00,Wunderground v.1.15,2013-01-12 10:32:00,
2013-01-12 05:34:00,43.5,41.9,30.12,North,360,2.0,3.0,94,0.00,,,0.00,Wunderground v.1.15,2013-01-12 10:34:00,
2013-01-12 05:36:00,43.6,42.0,30.12,North,360,2.0,3.0,94,0.00,,,0.00,Wunderground v.1.15,2013-01-12 10:36:00,
2013-01-12 05:42:00,43.7,42.1,30.12,North,360,1.0,3.0,94,0.00,,,0.00,Wunderground v.1.15,2013-01-12 10:42:00,
2013-01-12 05:44:00,43.7,42.1,30.11,North,360,1.0,3.0,94,0.00,,,0.00,Wunderground v.1.15,2013-01-12 10:44:00,
2013-01-12 05:45:00,43.8,42.2,30.11,North,360,1.0,3.0,94,0.00,,,0.00,Wunderground v.1.15,2013-01-12 10:45:00,
2013-01-12 05:47:00,43.8,42.2,30.11,North,360,1.0,3.0,94,0.00,,,0.00,Wunderground v.1.15,2013-01-12 10:47:00,
2013-01-12 05:50:00,43.8,42.2,30.11,North,360,2.0,3.0,94,0.00,,,0.00,Wunderground v.1.15,2013-01-12 10:50:00,
2013-01-12 05:52:00,43.9,42.3,30.11,North,360,2.0,3.0,94,0.00,,,0.00,Wunderground v.1.15,2013-01-12 10:52:00,
2013-01-12 05:58:00,43.6,42.0,30.11,North,360,2.0,4.0,94,0.00,,,0.00,Wunderground v.1.15,2013-01-12 10:58:00,
2013-01-12 05:59:00,43.6,42.0,30.11,North,360,2.0,2.0,94,0.00,,,0.00,Wunderground v.1.15,2013-01-12 10:59:00,
2013-01-12 06:01:00,43.6,42.0,30.11,North,360,2.0,2.0,94,0.00,,,0.00,Wunderground v.1.15,2013-01-12 11:01:00,
2013-01-12 06:06:00,43.7,42.1,30.12,North,360,2.0,3.0,94,0.00,,,0.00,Wunderground v.1.15,2013-01-12 11:06:00,
2013-01-12 06:10:00,43.8,42.2,30.13,North,360,2.0,2.0,94,0.00,,,0.00,Wunderground v.1.15,2013-01-12 11:10:00,
2013-01-12 06:12:00,43.8,42.2,30.13,North,360,2.0,2.0,94,0.00,,,0.00,Wunderground v.1.15,2013-01-12 11:12:00,
2013-01-12 06:16:00,43.8,42.2,30.13,North,360,2.0,2.0,94,0.00,,,0.00,Wunderground v.1.15,2013-01-12 11:16:00,
2013-01-12 06:18:00,43.8,42.2,30.12,North,360,1.0,2.0,94,0.00,,,0.00,Wunderground v.1.15,2013-01-12 11:18:00,
2013-01-12 06:22:00,43.8,42.2,30.12,North,360,2.0,2.0,94,0.00,,,0.00,Wunderground v.1.15,2013-01-12 11:22:00,
2013-01-12 06:24:00,43.8,42.2,30.12,North,360,2.0,3.0,94,0.00,,,0.00,Wunderground v.1.15,2013-01-12 11:24:00,
2013-01-12 06:26:00,43.7,42.1,30.12,North,360,2.0,3.0,94,0.00,,,0.00,Wunderground v.1.15,2013-01-12 11:26:00,
2013-01-12 06:28:00,43.6,42.0,30.12,North,360,2.0,3.0,94,0.00,,,0.00,Wunderground v.1.15,2013-01-12 11:28:00,
2013-01-12 06:32:00,43.5,41.9,30.12,North,360,2.0,3.0,94,0.00,,,0.00,Wunderground v.1.15,2013-01-12 11:32:00,
2013-01-12 06:34:00,43.5,41.9,30.13,North,360,2.0,3.0,94,0.00,,,0.00,Wunderground v.1.15,2013-01-12 11:34:00,
2013-01-12 06:38:00,43.5,41.9,30.13,North,360,2.0,3.0,94,0.00,,,0.00,Wunderground v.1.15,2013-01-12 11:38:00,
2013-01-12 06:40:00,43.5,41.9,30.14,North,360,2.0,3.0,94,0.00,,,0.00,Wunderground v.1.15,2013-01-12 11:40:00,
2013-01-12 06:42:00,43.5,41.9,30.14,North,360,2.0,3.0,94,0.00,,,0.00,Wunderground v.1.15,2013-01-12 11:42:00,
2013-01-12 06:44:00,43.5,41.9,30.14,North,360,2.0,3.0,94,0.00,,,0.00,Wunderground v.1.15,2013-01-12 11:44:00,
2013-01-12 06:46:00,43.5,41.9,30.13,North,360,2.0,3.0,94,0.00,,,0.00,Wunderground v.1.15,2013-01-12 11:46:00,
2013-01-12 06:50:00,43.4,41.8,30.13,North,360,2.0,2.0,94,0.00,,,0.00,Wunderground v.1.15,2013-01-12 11:50:00,
2013-01-12 06:51:00,43.4,41.8,30.14,North,360,2.0,2.0,94,0.00,,,0.00,Wunderground v.1.15,2013-01-12 11:51:00,
2013-01-12 06:54:00,43.4,41.8,30.14,North,360,1.0,2.0,94,0.00,,,0.00,Wunderground v.1.15,2013-01-12 11:54:00,
2013-01-12 06:56:00,43.4,41.8,30.14,North,360,1.0,3.0,94,0.00,,,0.00,Wunderground v.1.15,2013-01-12 11:56:00,
2013-01-12 07:00:00,43.6,42.0,30.14,North,360,1.0,4.0,94,0.00,,,0.00,Wunderground v.1.15,2013-01-12 12:00:00,
2013-01-12 07:02:00,43.6,42.0,30.14,North,360,1.0,4.0,94,0.00,,,0.00,Wunderground v.1.15,2013-01-12 12:02:00,
2013-01-12 07:04:00,43.6,42.0,30.14,North,360,1.0,4.0,94,0.00,,,0.00,Wunderground v.1.15,2013-01-12 12:04:00,
2013-01-12 07:08:00,43.6,42.0,30.14,North,360,1.0,4.0,94,0.00,,,0.00,Wunderground v.1.15,2013-01-12 12:08:00,
2013-01-12 07:10:00,43.5,41.9,30.13,North,360,2.0,3.0,94,0.00,,,0.01,Wunderground v.1.15,2013-01-12 12:10:00,
2013-01-12 07:14:00,43.6,42.0,30.14,North,360,2.0,3.0,94,0.00,,,0.01,Wunderground v.1.15,2013-01-12 12:14:00,
2013-01-12 07:18:00,43.6,42.0,30.14,North,360,2.0,3.0,94,0.00,,,0.01,Wunderground v.1.15,2013-01-12 12:18:00,
2013-01-12 07:20:00,43.6,42.0,30.14,North,360,1.0,1.0,94,0.00,,,0.01,Wunderground v.1.15,2013-01-12 12:20:00,
2013-01-12 07:22:00,43.6,42.0,30.14,North,360,1.0,2.0,94,0.00,,,0.01,Wunderground v.1.15,2013-01-12 12:22:00,
2013-01-12 07:24:00,43.7,42.1,30.14,North,360,1.0,2.0,94,0.00,,,0.01,Wunderground v.1.15,2013-01-12 12:24:00,
2013-01-12 07:28:00,43.6,42.0,30.14,North,360,1.0,2.0,94,0.00,,,0.01,Wunderground v.1.15,2013-01-12 12:28:00,
2013-01-12 07:30:00,43.6,42.0,30.14,North,360,1.0,1.0,94,0.00,,,0.01,Wunderground v.1.15,2013-01-12 12:30:00,
2013-01-12 07:34:00,43.8,42.2,30.15,North,360,1.0,1.0,94,0.00,,,0.01,Wunderground v.1.15,2013-01-12 12:34:00,
2013-01-12 07:36:00,43.8,42.2,30.15,North,360,1.0,2.0,94,0.00,,,0.01,Wunderground v.1.15,2013-01-12 12:36:00,
2013-01-12 07:38:00,43.9,42.3,30.15,NNE,27,1.0,2.0,94,0.00,,,0.01,Wunderground v.1.15,2013-01-12 12:38:00,
2013-01-12 07:42:00,44.0,42.4,30.15,NNE,26,0.0,0.0,94,0.00,,,0.01,Wunderground v.1.15,2013-01-12 12:42:00,
2013-01-12 07:46:00,43.9,42.3,30.15,NNE,28,0.0,0.0,94,0.00,,,0.01,Wunderground v.1.15,2013-01-12 12:46:00,
2013-01-12 07:48:00,44.0,42.4,30.15,North,360,0.0,2.0,94,0.00,,,0.01,Wunderground v.1.15,2013-01-12 12:48:00,
2013-01-12 07:52:00,44.0,42.4,30.15,NNE,26,0.0,0.0,94,0.00,,,0.01,Wunderground v.1.15,2013-01-12 12:52:00,
2013-01-12 07:56:00,43.9,42.3,30.15,NNE,28,1.0,2.0,94,0.00,,,0.01,Wunderground v.1.15,2013-01-12 12:56:00,
2013-01-12 07:58:00,43.9,42.3,30.15,NNE,26,1.0,2.0,94,0.00,,,0.01,Wunderground v.1.15,2013-01-12 12:58:00,
2013-01-12 08:00:00,44.0,42.4,30.15,NNE,27,1.0,1.0,94,0.00,,,0.01,Wunderground v.1.15,2013-01-12 13:00:00,
2013-01-12 08:06:00,44.1,42.5,30.15,NNE,26,1.0,2.0,94,0.00,,,0.01,Wunderground v.1.15,2013-01-12 13:06:00,
2013-01-12 08:08:00,44.1,42.5,30.15,NNE,28,1.0,2.0,94,0.00,,,0.01,Wunderground v.1.15,2013-01-12 13:08:00,
2013-01-12 08:12:00,44.2,42.6,30.16,North,360,1.0,2.0,94,0.00,,,0.01,Wunderground v.1.15,2013-01-12 13:12:00,
2013-01-12 08:16:00,44.1,42.2,30.16,North,360,2.0,2.0,93,0.00,,,0.01,Wunderground v.1.15,2013-01-12 13:16:00,
2013-01-12 08:18:00,44.0,42.1,30.16,North,360,1.0,2.0,93,0.00,,,0.01,Wunderground v.1.15,2013-01-12 13:18:00,
2013-01-12 08:22:00,44.0,42.4,30.16,NNE,14,2.0,4.0,94,0.00,,,0.01,Wunderground v.1.15,2013-01-12 13:22:00,
2013-01-12 08:24:00,44.0,42.4,30.16,NNE,14,2.0,4.0,94,0.00,,,0.01,Wunderground v.1.15,2013-01-12 13:24:00,
2013-01-12 08:26:00,44.0,42.4,30.16,NNE,15,2.0,4.0,94,0.00,,,0.01,Wunderground v.1.15,2013-01-12 13:26:00,
2013-01-12 08:30:00,44.1,42.5,30.16,NNE,21,3.0,5.0,94,0.00,,,0.01,Wunderground v.1.15,2013-01-12 13:30:00,
2013-01-12 08:32:00,44.1,42.5,30.15,NNE,22,4.0,6.0,94,0.00,,,0.01,Wunderground v.1.15,2013-01-12 13:32:00,
2013-01-12 08:34:00,44.0,42.1,30.16,NNE,22,4.0,6.0,93,0.00,,,0.01,Wunderground v.1.15,2013-01-12 13:34:00,
2013-01-12 08:36:00,44.0,42.1,30.16,North,360,4.0,6.0,93,0.00,,,0.01,Wunderground v.1.15,2013-01-12 13:36:00,
2013-01-12 08:38:00,44.0,42.4,30.17,NNE,21,4.0,6.0,94,0.00,,,0.01,Wunderground v.1.15,2013-01-12 13:38:00,
2013-01-12 08:44:00,44.1,42.5,30.15,NNE,22,2.0,4.0,94,0.00,,,0.01,Wunderground v.1.15,2013-01-12 13:44:00,
2013-01-12 08:47:00,44.2,42.6,30.16,NNE,22,2.0,4.0,94,0.00,,,0.01,Wunderground v.1.15,2013-01-12 13:47:00,
2013-01-12 08:50:00,44.3,42.7,30.16,NNE,21,2.0,3.0,94,0.00,,,0.01,Wunderground v.1.15,2013-01-12 13:50:00,
2013-01-12 08:54:00,44.4,42.5,30.16,NNE,22,2.0,3.0,93,0.00,,,0.01,Wunderground v.1.15,2013-01-12 13:54:00,
2013-01-12 08:56:00,44.4,42.5,30.16,NNE,22,2.0,3.0,93,0.00,,,0.01,Wunderground v.1.15,2013-01-12 13:56:00,
2013-01-12 08:58:00,44.5,42.6,30.17,NNE,22,2.0,3.0,93,0.00,,,0.01,Wunderground v.1.15,2013-01-12 13:58:00,
2013-01-12 09:01:00,44.5,42.6,30.16,NNE,21,2.0,3.0,93,0.00,,,0.01,Wunderground v.1.15,2013-01-12 14:01:00,
2013-01-12 09:04:00,44.5,42.6,30.16,NNE,22,2.0,3.0,93,0.00,,,0.01,Wunderground v.1.15,2013-01-12 14:04:00,
2013-01-12 09:06:00,44.5,42.6,30.16,NNE,21,2.0,3.0,93,0.00,,,0.01,Wunderground v.1.15,2013-01-12 14:06:00,
2013-01-12 09:10:00,44.6,42.7,30.16,NNE,22,2.0,2.0,93,0.00,,,0.01,Wunderground v.1.15,2013-01-12 14:10:00,
2013-01-12 09:16:00,44.7,42.8,30.16,NNE,21,2.0,2.0,93,0.00,,,0.01,Wunderground v.1.15,2013-01-12 14:16:00,
2013-01-12 09:17:00,44.7,42.8,30.15,NNE,21,1.0,2.0,93,0.00,,,0.01,Wunderground v.1.15,2013-01-12 14:17:00,
2013-01-12 09:22:00,44.7,42.8,30.16,North,360,0.0,2.0,93,0.00,,,0.01,Wunderground v.1.15,2013-01-12 14:22:00,
2013-01-12 09:24:00,44.8,42.9,30.16,North,360,0.0,2.0,93,0.00,,,0.01,Wunderground v.1.15,2013-01-12 14:24:00,
2013-01-12 09:28:00,45.0,43.1,30.16,NNE,22,1.0,2.0,93,0.00,,,0.01,Wunderground v.1.15,2013-01-12 14:28:00,
2013-01-12 09:30:00,45.1,43.2,30.16,NNE,22,1.0,2.0,93,0.00,,,0.01,Wunderground v.1.15,2013-01-12 14:30:00,
2013-01-12 09:32:00,45.2,43.3,30.16,NNE,21,2.0,2.0,93,0.00,,,0.01,Wunderground v.1.15,2013-01-12 14:32:00,
2013-01-12 09:36:00,45.5,43.6,30.16,NNE,22,2.0,2.0,93,0.00,,,0.01,Wunderground v.1.15,2013-01-12 14:36:00,
2013-01-12 09:38:00,45.6,43.7,30.16,NNE,22,1.0,2.0,93,0.00,,,0.01,Wunderground v.1.15,2013-01-12 14:38:00,
2013-01-12 09:44:00,45.7,43.5,30.16,NNE,21,1.0,2.0,92,0.00,,,0.01,Wunderground v.1.15,2013-01-12 14:44:00,
2013-01-12 09:47:00,45.8,43.6,30.16,North,360,2.0,3.0,92,0.00,,,0.01,Wunderground v.1.15,2013-01-12 14:47:00,
2013-01-12 09:50:00,46.0,43.8,30.16,NNE,22,1.0,1.0,92,0.00,,,0.01,Wunderground v.1.15,2013-01-12 14:50:00,
2013-01-12 09:54:00,46.3,44.1,30.16,NNE,22,1.0,2.0,92,0.00,,,0.01,Wunderground v.1.15,2013-01-12 14:54:00,
2013-01-12 09:56:00,46.3,44.1,30.16,NNE,22,1.0,2.0,92,0.00,,,0.01,Wunderground v.1.15,2013-01-12 14:56:00,
2013-01-12 10:02:00,46.2,43.7,30.16,NNE,23,1.0,1.0,91,0.00,,,0.01,Wunderground v.1.15,2013-01-12 15:02:00,
2013-01-12 10:06:00,46.4,43.9,30.16,NNE,22,0.0,1.0,91,0.00,,,0.01,Wunderground v.1.15,2013-01-12 15:06:00,
2013-01-12 10:08:00,46.5,44.0,30.16,NNE,23,0.0,1.0,91,0.00,,,0.01,Wunderground v.1.15,2013-01-12 15:08:00,
2013-01-12 10:10:00,46.5,44.0,30.17,NNE,22,0.0,2.0,91,0.00,,,0.01,Wunderground v.1.15,2013-01-12 15:10:00,
2013-01-12 10:16:00,46.7,43.9,30.16,NNE,23,1.0,2.0,90,0.00,,,0.01,Wunderground v.1.15,2013-01-12 15:16:00,
2013-01-12 10:18:00,46.8,44.0,30.16,NNE,23,1.0,2.0,90,0.00,,,0.01,Wunderground v.1.15,2013-01-12 15:18:00,
2013-01-12 10:20:00,47.0,44.2,30.16,NNE,21,1.0,3.0,90,0.00,,,0.01,Wunderground v.1.15,2013-01-12 15:20:00,
2013-01-12 10:22:00,47.3,44.8,30.16,NNE,22,0.0,3.0,91,0.00,,,0.01,Wunderground v.1.15,2013-01-12 15:22:00,
2013-01-12 10:26:00,47.6,44.8,30.16,NNE,21,1.0,3.0,90,0.00,,,0.01,Wunderground v.1.15,2013-01-12 15:26:00,
2013-01-12 10:28:00,47.7,44.6,30.16,NNE,22,1.0,3.0,89,0.00,,,0.01,Wunderground v.1.15,2013-01-12 15:28:00,
2013-01-12 10:30:00,47.8,44.7,30.16,NNE,22,1.0,1.0,89,0.00,,,0.01,Wunderground v.1.15,2013-01-12 15:30:00,
2013-01-12 10:34:00,48.1,45.0,30.16,North,360,1.0,1.0,89,0.00,,,0.01,Wunderground v.1.15,2013-01-12 15:34:00,
2013-01-12 10:36:00,48.3,44.9,30.16,North,360,1.0,1.0,88,0.00,,,0.01,Wunderground v.1.15,2013-01-12 15:36:00,
2013-01-12 10:40:00,48.5,45.1,30.16,North,360,0.0,1.0,88,0.00,,,0.01,Wunderground v.1.15,2013-01-12 15:40:00,
2013-01-12 10:42:00,48.6,44.9,30.16,North,360,1.0,4.0,87,0.00,,,0.01,Wunderground v.1.15,2013-01-12 15:42:00,
2013-01-12 10:45:00,48.3,44.3,30.16,North,360,1.0,4.0,86,0.00,,,0.01,Wunderground v.1.15,2013-01-12 15:45:00,
2013-01-12 10:47:00,48.2,44.2,30.16,North,360,2.0,4.0,86,0.00,,,0.01,Wunderground v.1.15,2013-01-12 15:47:00,
2013-01-12 10:50:00,48.1,44.1,30.16,North,360,2.0,2.0,86,0.00,,,0.01,Wunderground v.1.15,2013-01-12 15:50:00,
2013-01-12 10:52:00,48.2,44.5,30.16,North,360,1.0,2.0,87,0.00,,,0.01,Wunderground v.1.15,2013-01-12 15:52:00,
2013-01-12 10:54:00,48.4,44.7,30.16,North,360,1.0,3.0,87,0.00,,,0.01,Wunderground v.1.15,2013-01-12 15:54:00,
2013-01-12 10:58:00,48.5,44.8,30.16,North,360,2.0,3.0,87,0.00,,,0.01,Wunderground v.1.15,2013-01-12 15:58:00,
2013-01-12 11:00:00,48.5,44.8,30.16,North,360,2.0,4.0,87,0.00,,,0.01,Wunderground v.1.15,2013-01-12 16:00:00,
2013-01-12 11:02:00,48.4,44.4,30.16,North,360,3.0,4.0,86,0.00,,,0.01,Wunderground v.1.15,2013-01-12 16:02:00,
2013-01-12 11:04:00,48.4,44.7,30.16,North,360,3.0,6.0,87,0.00,,,0.01,Wunderground v.1.15,2013-01-12 16:04:00,
2013-01-12 11:06:00,48.3,44.6,30.16,North,360,3.0,6.0,87,0.00,,,0.01,Wunderground v.1.15,2013-01-12 16:06:00,
2013-01-12 11:08:00,48.3,44.6,30.16,North,360,3.0,6.0,87,0.00,,,0.01,Wunderground v.1.15,2013-01-12 16:08:00,
2013-01-12 11:12:00,48.1,44.4,30.15,North,360,3.0,4.0,87,0.00,,,0.01,Wunderground v.1.15,2013-01-12 16:12:00,
2013-01-12 11:14:00,48.1,44.4,30.15,North,360,3.0,4.0,87,0.00,,,0.01,Wunderground v.1.15,2013-01-12 16:14:00,
2013-01-12 11:16:00,48.2,44.5,30.15,North,360,2.0,4.0,87,0.00,,,0.01,Wunderground v.1.15,2013-01-12 16:16:00,
2013-01-12 11:22:00,48.6,44.9,30.15,North,360,1.0,4.0,87,0.00,,,0.01,Wunderground v.1.15,2013-01-12 16:22:00,
2013-01-12 11:26:00,48.8,45.1,30.15,North,360,1.0,4.0,87,0.00,,,0.01,Wunderground v.1.15,2013-01-12 16:26:00,
2013-01-12 11:30:00,49.1,45.4,30.15,North,360,1.0,1.0,87,0.00,,,0.01,Wunderground v.1.15,2013-01-12 16:30:00,
2013-01-12 11:32:00,49.1,45.1,30.15,North,360,1.0,1.0,86,0.00,,,0.01,Wunderground v.1.15,2013-01-12 16:32:00,
2013-01-12 11:34:00,49.2,45.2,30.15,North,360,1.0,3.0,86,0.00,,,0.01,Wunderground v.1.15,2013-01-12 16:34:00,
2013-01-12 11:36:00,49.3,45.3,30.15,North,360,1.0,3.0,86,0.00,,,0.01,Wunderground v.1.15,2013-01-12 16:36:00,
2013-01-12 11:38:00,49.5,45.5,30.14,North,360,1.0,3.0,86,0.00,,,0.01,Wunderground v.1.15,2013-01-12 16:38:00,
2013-01-12 11:41:00,49.6,45.3,30.14,North,360,2.0,2.0,85,0.00,,,0.01,Wunderground v.1.15,2013-01-12 16:41:00,
2013-01-12 11:44:00,49.6,45.3,30.14,North,360,2.0,5.0,85,0.00,,,0.01,Wunderground v.1.15,2013-01-12 16:44:00,
2013-01-12 11:48:00,49.2,44.6,30.14,North,360,3.0,5.0,84,0.00,,,0.01,Wunderground v.1.15,2013-01-12 16:48:00,
2013-01-12 11:50:00,49.2,44.9,30.14,North,360,2.0,2.0,85,0.00,,,0.01,Wunderground v.1.15,2013-01-12 16:50:00,
2013-01-12 11:52:00,49.2,44.9,30.14,North,360,2.0,2.0,85,0.00,,,0.01,Wunderground v.1.15,2013-01-12 16:52:00,
2013-01-12 11:54:00,49.5,45.5,30.14,North,360,2.0,2.0,86,0.00,,,0.01,Wunderground v.1.15,2013-01-12 16:54:00,
2013-01-12 11:58:00,49.9,45.6,30.14,North,360,1.0,2.0,85,0.00,,,0.01,Wunderground v.1.15,2013-01-12 16:58:00,
2013-01-12 12:00:00,50.1,45.8,30.14,North,360,1.0,1.0,85,0.00,,,0.01,Wunderground v.1.15,2013-01-12 17:00:00,
2013-01-12 12:02:00,50.3,46.0,30.14,North,360,1.0,1.0,85,0.00,,,0.01,Wunderground v.1.15,2013-01-12 17:02:00,
2013-01-12 12:08:00,50.4,45.4,30.14,North,360,2.0,3.0,83,0.00,,,0.01,Wunderground v.1.15,2013-01-12 17:08:00,
2013-01-12 12:10:00,50.6,45.9,30.14,North,360,2.0,2.0,84,0.00,,,0.01,Wunderground v.1.15,2013-01-12 17:10:00,
2013-01-12 12:14:00,50.9,45.9,30.13,North,360,2.0,3.0,83,0.00,,,0.01,Wunderground v.1.15,2013-01-12 17:14:00,
2013-01-12 12:16:00,51.1,46.1,30.13,North,360,1.0,3.0,83,0.00,,,0.01,Wunderground v.1.15,2013-01-12 17:16:00,
2013-01-12 12:20:00,51.3,46.0,30.13,North,360,2.0,2.0,82,0.00,,,0.01,Wunderground v.1.15,2013-01-12 17:20:00,
2013-01-12 12:22:00,51.3,46.0,30.13,North,360,2.0,2.0,82,0.00,,,0.01,Wunderground v.1.15,2013-01-12 17:22:00,
2013-01-12 12:24:00,51.5,46.2,30.13,North,360,2.0,2.0,82,0.00,,,0.01,Wunderground v.1.15,2013-01-12 17:24:00,
2013-01-12 12:25:00,51.6,46.3,30.13,North,360,2.0,3.0,82,0.00,,,0.01,Wunderground v.1.15,2013-01-12 17:25:00,
2013-01-12 12:28:00,51.7,46.1,30.13,North,360,2.0,5.0,81,0.00,,,0.01,Wunderground v.1.15,2013-01-12 17:28:00,
2013-01-12 12:34:00,51.5,46.2,30.13,North,360,3.0,5.0,82,0.00,,,0.01,Wunderground v.1.15,2013-01-12 17:34:00,
2013-01-12 12:36:00,51.5,46.2,30.13,North,360,3.0,5.0,82,0.00,,,0.01,Wunderground v.1.15,2013-01-12 17:36:00,
2013-01-12 12:38:00,51.6,46.3,30.13,North,360,3.0,5.0,82,0.00,,,0.01,Wunderground v.1.15,2013-01-12 17:38:00,
2013-01-12 12:41:00,51.6,46.3,30.13,North,360,2.0,5.0,82,0.00,,,0.01,Wunderground v.1.15,2013-01-12 17:41:00,
2013-01-12 12:44:00,51.6,46.0,30.13,North,360,2.0,5.0,81,0.00,,,0.01,Wunderground v.1.15,2013-01-12 17:44:00,
2013-01-12 12:46:00,51.7,46.4,30.13,North,360,2.0,5.0,82,0.00,,,0.01,Wunderground v.1.15,2013-01-12 17:46:00,
2013-01-12 12:48:00,51.9,46.6,30.13,North,360,2.0,5.0,82,0.00,,,0.01,Wunderground v.1.15,2013-01-12 17:48:00,
2013-01-12 12:50:00,52.0,46.3,30.13,North,360,2.0,4.0,81,0.00,,,0.01,Wunderground v.1.15,2013-01-12 17:50:00,
2013-01-12 12:52:00,52.1,46.4,30.12,North,360,2.0,4.0,81,0.00,,,0.01,Wunderground v.1.15,2013-01-12 17:52:00,
2013-01-12 12:54:00,52.2,46.5,30.12,North,360,2.0,4.0,81,0.00,,,0.01,Wunderground v.1.15,2013-01-12 17:54:00,
2013-01-12 12:58:00,52.2,46.2,30.12,North,360,3.0,4.0,80,0.00,,,0.01,Wunderground v.1.15,2013-01-12 17:58:00,
2013-01-12 13:00:00,52.3,46.3,30.13,North,360,2.0,2.0,80,0.00,,,0.01,Wunderground v.1.15,2013-01-12 18:00:00,
2013-01-12 13:04:00,52.1,46.1,30.13,North,360,2.0,6.0,80,0.00,,,0.01,Wunderground v.1.15,2013-01-12 18:04:00,
2013-01-12 13:06:00,52.0,46.0,30.13,North,360,3.0,6.0,80,0.00,,,0.01,Wunderground v.1.15,2013-01-12 18:06:00,
2013-01-12 13:08:00,51.9,45.9,30.12,North,360,3.0,6.0,80,0.00,,,0.01,Wunderground v.1.15,2013-01-12 18:08:00,
2013-01-12 13:10:00,51.8,46.2,30.12,North,360,3.0,3.0,81,0.00,,,0.01,Wunderground v.1.15,2013-01-12 18:10:00,
2013-01-12 13:16:00,52.2,46.5,30.12,North,360,2.0,4.0,81,0.00,,,0.01,Wunderground v.1.15,2013-01-12 18:16:00,
2013-01-12 13:18:00,52.2,46.2,30.12,North,360,2.0,4.0,80,0.00,,,0.01,Wunderground v.1.15,2013-01-12 18:18:00,
2013-01-12 13:20:00,52.2,46.2,30.12,North,360,2.0,4.0,80,0.00,,,0.01,Wunderground v.1.15,2013-01-12 18:20:00,
2013-01-12 13:22:00,52.3,46.3,30.12,North,360,2.0,4.0,80,0.00,,,0.01,Wunderground v.1.15,2013-01-12 18:22:00,
2013-01-12 13:24:00,52.4,46.4,30.12,North,360,3.0,4.0,80,0.00,,,0.01,Wunderground v.1.15,2013-01-12 18:24:00,
2013-01-12 13:28:00,52.7,46.7,30.12,North,360,2.0,5.0,80,0.00,,,0.01,Wunderground v.1.15,2013-01-12 18:28:00,
2013-01-12 13:32:00,52.9,46.6,30.12,North,360,1.0,2.0,79,0.00,,,0.01,Wunderground v.1.15,2013-01-12 18:32:00,
2013-01-12 13:34:00,53.0,46.7,30.12,North,360,1.0,2.0,79,0.00,,,0.01,Wunderground v.1.15,2013-01-12 18:34:00,
2013-01-12 13:36:00,53.1,46.8,30.12,North,360,1.0,4.0,79,0.00,,,0.01,Wunderground v.1.15,2013-01-12 18:36:00,
2013-01-12 13:38:00,53.3,46.6,30.12,North,360,2.0,4.0,78,0.00,,,0.01,Wunderground v.1.15,2013-01-12 18:38:00,
2013-01-12 13:42:00,53.5,46.8,30.11,North,360,2.0,2.0,78,0.00,,,0.01,Wunderground v.1.15,2013-01-12 18:42:00,
2013-01-12 13:44:00,53.6,46.9,30.11,North,360,2.0,2.0,78,0.00,,,0.01,Wunderground v.1.15,2013-01-12 18:44:00,
2013-01-12 13:46:00,53.8,47.1,30.11,North,360,2.0,4.0,78,0.00,,,0.01,Wunderground v.1.15,2013-01-12 18:46:00,
2013-01-12 13:50:00,53.7,46.7,30.11,North,360,2.0,2.0,77,0.00,,,0.01,Wunderground v.1.15,2013-01-12 18:50:00,
2013-01-12 13:52:00,53.8,46.8,30.11,North,360,2.0,3.0,77,0.00,,,0.01,Wunderground v.1.15,2013-01-12 18:52:00,
2013-01-12 13:55:00,53.9,46.9,30.11,North,360,2.0,4.0,77,0.00,,,0.01,Wunderground v.1.15,2013-01-12 18:55:00,
2013-01-12 13:57:00,53.9,46.9,30.11,North,360,2.0,4.0,77,0.00,,,0.01,Wunderground v.1.15,2013-01-12 18:57:00,
2013-01-12 14:00:00,53.9,46.9,30.11,North,360,2.0,2.0,77,0.00,,,0.01,Wunderground v.1.15,2013-01-12 19:00:00,
2013-01-12 14:06:00,53.7,46.7,30.11,North,360,2.0,2.0,77,0.00,,,0.01,Wunderground v.1.15,2013-01-12 19:06:00,
2013-01-12 14:10:00,53.8,47.1,30.11,North,360,2.0,4.0,78,0.00,,,0.01,Wunderground v.1.15,2013-01-12 19:10:00,
2013-01-12 14:12:00,53.8,46.8,30.11,North,360,2.0,6.0,77,0.00,,,0.01,Wunderground v.1.15,2013-01-12 19:12:00,
2013-01-12 14:14:00,53.7,46.7,30.11,North,360,3.0,6.0,77,0.00,,,0.01,Wunderground v.1.15,2013-01-12 19:14:00,
2013-01-12 14:19:00,53.4,46.7,30.11,North,360,3.0,3.0,78,0.00,,,0.01,Wunderground v.1.15,2013-01-12 19:19:00,
2013-01-12 14:22:00,53.4,47.0,30.11,North,360,3.0,4.0,79,0.00,,,0.01,Wunderground v.1.15,2013-01-12 19:22:00,
2013-01-12 14:26:00,53.4,47.0,30.11,North,360,2.0,4.0,79,0.00,,,0.01,Wunderground v.1.15,2013-01-12 19:26:00,
2013-01-12 14:30:00,53.6,46.9,30.11,North,360,2.0,2.0,78,0.00,,,0.01,Wunderground v.1.15,2013-01-12 19:30:00,
2013-01-12 14:34:00,53.6,46.9,30.11,North,360,2.0,4.0,78,0.00,,,0.01,Wunderground v.1.15,2013-01-12 19:34:00,
2013-01-12 14:40:00,53.6,46.9,30.11,North,360,3.0,3.0,78,0.00,,,0.01,Wunderground v.1.15,2013-01-12 19:40:00,
2013-01-12 14:44:00,53.5,46.8,30.11,North,360,3.0,4.0,78,0.00,,,0.01,Wunderground v.1.15,2013-01-12 19:44:00,
2013-01-12 14:46:00,53.4,46.7,30.11,North,360,3.0,4.0,78,0.00,,,0.01,Wunderground v.1.15,2013-01-12 19:46:00,
2013-01-12 14:48:00,53.3,46.6,30.11,North,360,3.0,4.0,78,0.00,,,0.01,Wunderground v.1.15,2013-01-12 19:48:00,
2013-01-12 14:49:00,53.1,46.8,30.11,North,360,4.0,4.0,79,0.00,,,0.01,Wunderground v.1.15,2013-01-12 19:49:00,
2013-01-12 14:51:00,52.9,46.6,30.11,North,360,4.0,4.0,79,0.00,,,0.01,Wunderground v.1.15,2013-01-12 19:51:00,
2013-01-12 14:54:00,52.9,46.6,30.11,North,360,4.0,4.0,79,0.00,,,0.01,Wunderground v.1.15,2013-01-12 19:54:00,
2013-01-12 14:56:00,52.8,46.5,30.11,North,360,4.0,4.0,79,0.00,,,0.01,Wunderground v.1.15,2013-01-12 19:56:00,
2013-01-12 14:58:00,52.7,46.7,30.11,North,360,4.0,6.0,80,0.00,,,0.01,Wunderground v.1.15,2013-01-12 19:58:00,
2013-01-12 15:00:00,52.6,46.6,30.11,North,360,4.0,4.0,80,0.00,,,0.01,Wunderground v.1.15,2013-01-12 20:00:00,
2013-01-12 15:04:00,52.5,46.5,30.11,North,360,4.0,5.0,80,0.00,,,0.01,Wunderground v.1.15,2013-01-12 20:04:00,
2013-01-12 15:06:00,52.5,46.5,30.11,North,360,4.0,5.0,80,0.00,,,0.01,Wunderground v.1.15,2013-01-12 20:06:00,
2013-01-12 15:10:00,52.6,46.9,30.11,North,360,4.0,4.0,81,0.00,,,0.01,Wunderground v.1.15,2013-01-12 20:10:00,
2013-01-12 15:12:00,52.6,46.6,30.11,North,360,4.0,5.0,80,0.00,,,0.01,Wunderground v.1.15,2013-01-12 20:12:00,
2013-01-12 15:16:00,52.6,46.9,30.12,North,360,3.0,5.0,81,0.00,,,0.01,Wunderground v.1.15,2013-01-12 20:16:00,
2013-01-12 15:18:00,52.7,47.0,30.12,North,360,4.0,6.0,81,0.00,,,0.01,Wunderground v.1.15,2013-01-12 20:18:00,
2013-01-12 15:21:00,52.6,46.6,30.11,North,360,4.0,6.0,80,0.00,,,0.01,Wunderground v.1.15,2013-01-12 20:21:00,
2013-01-12 15:28:00,52.6,46.9,30.11,North,360,4.0,6.0,81,0.00,,,0.01,Wunderground v.1.15,2013-01-12 20:28:00,
2013-01-12 15:32:00,52.6,46.9,30.11,North,360,4.0,5.0,81,0.00,,,0.01,Wunderground v.1.15,2013-01-12 20:32:00,
2013-01-12 15:34:00,52.6,46.9,30.11,North,360,4.0,5.0,81,0.00,,,0.01,Wunderground v.1.15,2013-01-12 20:34:00,
2013-01-12 15:35:00,52.7,47.0,30.11,North,360,4.0,5.0,81,0.00,,,0.01,Wunderground v.1.15,2013-01-12 20:35:00,
2013-01-12 15:37:00,52.7,47.0,30.10,North,360,3.0,5.0,81,0.00,,,0.01,Wunderground v.1.15,2013-01-12 20:37:00,
2013-01-12 15:40:00,52.9,47.2,30.10,North,360,3.0,4.0,81,0.00,,,0.01,Wunderground v.1.15,2013-01-12 20:40:00,
2013-01-12 15:44:00,52.8,46.8,30.11,North,360,4.0,5.0,80,0.00,,,0.01,Wunderground v.1.15,2013-01-12 20:44:00,
2013-01-12 15:46:00,52.7,47.0,30.11,North,360,4.0,6.0,81,0.00,,,0.01,Wunderground v.1.15,2013-01-12 20:46:00,
2013-01-12 15:49:00,52.6,46.9,30.12,North,360,5.0,6.0,81,0.00,,,0.01,Wunderground v.1.15,2013-01-12 20:49:00,
2013-01-12 15:52:00,52.5,46.8,30.12,North,360,5.0,6.0,81,0.00,,,0.01,Wunderground v.1.15,2013-01-12 20:52:00,
2013-01-12 15:54:00,52.4,46.7,30.12,North,360,5.0,7.0,81,0.00,,,0.01,Wunderground v.1.15,2013-01-12 20:54:00,
2013-01-12 15:56:00,52.3,46.6,30.12,North,360,5.0,7.0,81,0.00,,,0.01,Wunderground v.1.15,2013-01-12 20:56:00,
2013-01-12 15:58:00,52.2,46.5,30.12,North,360,5.0,9.0,81,0.00,,,0.01,Wunderground v.1.15,2013-01-12 20:58:00,
2013-01-12 16:00:00,52.1,46.4,30.12,North,360,5.0,5.0,81,0.00,,,0.01,Wunderground v.1.15,2013-01-12 21:00:00,
2013-01-12 16:04:00,51.8,46.5,30.12,North,360,5.0,9.0,82,0.00,,,0.01,Wunderground v.1.15,2013-01-12 21:04:00,
2013-01-12 16:05:00,51.7,46.4,30.12,North,360,5.0,9.0,82,0.00,,,0.01,Wunderground v.1.15,2013-01-12 21:05:00,
2013-01-12 16:08:00,51.5,46.2,30.12,North,360,5.0,9.0,82,0.00,,,0.01,Wunderground v.1.15,2013-01-12 21:08:00,
2013-01-12 16:14:00,51.5,46.5,30.12,North,360,5.0,5.0,83,0.00,,,0.01,Wunderground v.1.15,2013-01-12 21:14:00,
2013-01-12 16:16:00,51.5,46.5,30.13,North,360,4.0,5.0,83,0.00,,,0.01,Wunderground v.1.15,2013-01-12 21:16:00,
2013-01-12 16:20:00,51.6,46.6,30.13,North,360,3.0,5.0,83,0.00,,,0.01,Wunderground v.1.15,2013-01-12 21:20:00,
2013-01-12 16:22:00,51.5,46.5,30.13,North,360,3.0,6.0,83,0.00,,,0.01,Wunderground v.1.15,2013-01-12 21:22:00,
2013-01-12 16:26:00,51.4,46.4,30.13,North,360,3.0,6.0,83,0.00,,,0.01,Wunderground v.1.15,2013-01-12 21:26:00,
2013-01-12 16:30:00,51.4,46.4,30.13,North,360,3.0,5.0,83,0.00,,,0.01,Wunderground v.1.15,2013-01-12 21:30:00,
2013-01-12 16:32:00,51.4,46.4,30.13,North,360,3.0,5.0,83,0.00,,,0.01,Wunderground v.1.15,2013-01-12 21:32:00,
2013-01-12 16:34:00,51.2,46.2,30.14,North,360,3.0,5.0,83,0.00,,,0.01,Wunderground v.1.15,2013-01-12 21:34:00,
2013-01-12 16:36:00,51.0,46.0,30.13,North,360,4.0,5.0,83,0.00,,,0.01,Wunderground v.1.15,2013-01-12 21:36:00,
2013-01-12 16:42:00,50.7,46.0,30.13,North,360,5.0,6.0,84,0.00,,,0.01,Wunderground v.1.15,2013-01-12 21:42:00,
2013-01-12 16:44:00,50.6,45.9,30.13,North,360,5.0,6.0,84,0.00,,,0.01,Wunderground v.1.15,2013-01-12 21:44:00,
2013-01-12 16:46:00,50.5,46.2,30.13,North,360,5.0,6.0,85,0.00,,,0.01,Wunderground v.1.15,2013-01-12 21:46:00,
2013-01-12 16:52:00,50.4,46.1,30.13,North,360,3.0,4.0,85,0.00,,,0.01,Wunderground v.1.15,2013-01-12 21:52:00,
2013-01-12 16:54:00,50.4,46.1,30.13,North,360,3.0,4.0,85,0.00,,,0.01,Wunderground v.1.15,2013-01-12 21:54:00,
2013-01-12 16:56:00,50.3,46.0,30.13,North,360,3.0,4.0,85,0.00,,,0.01,Wunderground v.1.15,2013-01-12 21:56:00,
2013-01-12 16:58:00,50.3,46.0,30.13,North,360,3.0,4.0,85,0.00,,,0.01,Wunderground v.1.15,2013-01-12 21:58:00,
2013-01-12 16:59:00,50.2,45.9,30.13,North,360,4.0,5.0,85,0.00,,,0.01,Wunderground v.1.15,2013-01-12 21:59:00,
2013-01-12 17:06:00,49.7,45.7,30.13,North,360,5.0,5.0,86,0.00,,,0.01,Wunderground v.1.15,2013-01-12 22:06:00,
2013-01-12 17:10:00,49.6,45.6,30.13,North,360,5.0,5.0,86,0.00,,,0.01,Wunderground v.1.15,2013-01-12 22:10:00,
2013-01-12 17:12:00,49.5,45.5,30.13,North,360,5.0,6.0,86,0.00,,,0.01,Wunderground v.1.15,2013-01-12 22:12:00,
2013-01-12 17:14:00,49.4,45.4,30.13,North,360,5.0,6.0,86,0.00,,,0.01,Wunderground v.1.15,2013-01-12 22:14:00,
2013-01-12 17:16:00,49.3,45.3,30.13,North,360,6.0,6.0,86,0.00,,,0.01,Wunderground v.1.15,2013-01-12 22:16:00,
2013-01-12 17:18:00,49.2,45.5,30.13,North,360,5.0,6.0,87,0.00,,,0.01,Wunderground v.1.15,2013-01-12 22:18:00,
2013-01-12 17:22:00,49.1,45.4,30.13,North,360,5.0,6.0,87,0.00,,,0.01,Wunderground v.1.15,2013-01-12 22:22:00,
2013-01-12 17:24:00,49.1,45.4,30.13,North,360,5.0,6.0,87,0.00,,,0.01,Wunderground v.1.15,2013-01-12 22:24:00,
2013-01-12 17:28:00,48.9,45.2,30.14,North,360,5.0,6.0,87,0.00,,,0.01,Wunderground v.1.15,2013-01-12 22:28:00,
2013-01-12 17:29:00,48.9,45.5,30.14,North,360,5.0,5.0,88,0.00,,,0.01,Wunderground v.1.15,2013-01-12 22:29:00,
2013-01-12 17:32:00,48.9,45.5,30.14,North,360,4.0,5.0,88,0.00,,,0.01,Wunderground v.1.15,2013-01-12 22:32:00,
2013-01-12 17:36:00,48.9,45.5,30.14,North,360,4.0,5.0,88,0.00,,,0.01,Wunderground v.1.15,2013-01-12 22:36:00,
2013-01-12 17:37:00,48.8,45.1,30.14,North,360,4.0,5.0,87,0.00,,,0.01,Wunderground v.1.15,2013-01-12 22:37:00,
2013-01-12 17:42:00,48.5,44.8,30.14,North,360,4.0,5.0,87,0.00,,,0.01,Wunderground v.1.15,2013-01-12 22:42:00,
2013-01-12 17:44:00,48.5,45.1,30.14,North,360,4.0,5.0,88,0.00,,,0.01,Wunderground v.1.15,2013-01-12 22:44:00,
2013-01-12 17:46:00,48.5,45.1,30.14,North,360,4.0,5.0,88,0.00,,,0.01,Wunderground v.1.15,2013-01-12 22:46:00,
2013-01-12 17:50:00,48.5,45.1,30.14,North,360,2.0,3.0,88,0.00,,,0.01,Wunderground v.1.15,2013-01-12 22:50:00,
2013-01-12 17:52:00,48.6,45.2,30.14,North,360,2.0,5.0,88,0.00,,,0.01,Wunderground v.1.15,2013-01-12 22:52:00,
2013-01-12 17:54:00,48.7,45.3,30.14,North,360,2.0,5.0,88,0.00,,,0.01,Wunderground v.1.15,2013-01-12 22:54:00,
2013-01-12 17:56:00,48.7,45.3,30.14,North,360,2.0,5.0,88,0.00,,,0.01,Wunderground v.1.15,2013-01-12 22:56:00,
2013-01-12 17:58:00,48.6,45.2,30.14,North,360,3.0,5.0,88,0.00,,,0.01,Wunderground v.1.15,2013-01-12 22:58:00,
2013-01-12 18:02:00,48.5,45.1,30.14,North,360,3.0,5.0,88,0.00,,,0.01,Wunderground v.1.15,2013-01-12 23:02:00,
2013-01-12 18:04:00,48.4,45.0,30.14,North,360,3.0,5.0,88,0.00,,,0.01,Wunderground v.1.15,2013-01-12 23:04:00,
2013-01-12 18:08:00,48.3,45.2,30.14,North,360,4.0,5.0,89,0.00,,,0.01,Wunderground v.1.15,2013-01-12 23:08:00,
2013-01-12 18:10:00,48.3,44.9,30.14,North,360,4.0,5.0,88,0.00,,,0.01,Wunderground v.1.15,2013-01-12 23:10:00,
2013-01-12 18:14:00,48.4,45.3,30.14,North,360,3.0,5.0,89,0.00,,,0.01,Wunderground v.1.15,2013-01-12 23:14:00,
2013-01-12 18:16:00,48.4,45.3,30.14,North,360,4.0,5.0,89,0.00,,,0.01,Wunderground v.1.15,2013-01-12 23:16:00,
2013-01-12 18:18:00,48.4,45.3,30.14,North,360,3.0,6.0,89,0.00,,,0.01,Wunderground v.1.15,2013-01-12 23:18:00,
2013-01-12 18:19:00,48.4,45.3,30.14,North,360,4.0,5.0,89,0.00,,,0.01,Wunderground v.1.15,2013-01-12 23:19:00,
2013-01-12 18:22:00,48.3,45.2,30.14,North,360,4.0,5.0,89,0.00,,,0.01,Wunderground v.1.15,2013-01-12 23:22:00,
2013-01-12 18:24:00,48.2,45.1,30.14,North,360,4.0,5.0,89,0.00,,,0.01,Wunderground v.1.15,2013-01-12 23:24:00,
2013-01-12 18:26:00,48.2,45.1,30.14,North,360,4.0,5.0,89,0.00,,,0.01,Wunderground v.1.15,2013-01-12 23:26:00,
2013-01-12 18:30:00,48.0,44.9,30.14,North,360,4.0,6.0,89,0.00,,,0.01,Wunderground v.1.15,2013-01-12 23:30:00,
2013-01-12 18:34:00,47.9,45.1,30.14,North,360,3.0,6.0,90,0.00,,,0.01,Wunderground v.1.15,2013-01-12 23:34:00,
2013-01-12 18:36:00,48.0,45.2,30.14,North,360,3.0,6.0,90,0.00,,,0.01,Wunderground v.1.15,2013-01-12 23:36:00,
2013-01-12 18:38:00,47.9,45.1,30.14,North,360,2.0,6.0,90,0.00,,,0.01,Wunderground v.1.15,2013-01-12 23:38:00,
2013-01-12 18:39:00,47.9,45.1,30.14,North,360,2.0,2.0,90,0.00,,,0.01,Wunderground v.1.15,2013-01-12 23:39:00,
2013-01-12 18:42:00,47.9,45.1,30.14,North,360,2.0,2.0,90,0.00,,,0.01,Wunderground v.1.15,2013-01-12 23:42:00,
2013-01-12 18:44:00,47.9,45.1,30.14,North,360,2.0,2.0,90,0.00,,,0.01,Wunderground v.1.15,2013-01-12 23:44:00,
2013-01-12 18:46:00,47.8,45.0,30.14,North,360,2.0,2.0,90,0.00,,,0.01,Wunderground v.1.15,2013-01-12 23:46:00,
2013-01-12 18:50:00,47.8,45.0,30.13,North,360,2.0,2.0,90,0.00,,,0.01,Wunderground v.1.15,2013-01-12 23:50:00,
2013-01-12 18:52:00,47.8,45.0,30.13,North,360,1.0,4.0,90,0.00,,,0.01,Wunderground v.1.15,2013-01-12 23:52:00,
2013-01-12 18:54:00,47.8,45.3,30.13,North,360,2.0,4.0,91,0.00,,,0.01,Wunderground v.1.15,2013-01-12 23:54:00,
2013-01-12 18:56:00,47.9,45.4,30.14,North,360,2.0,5.0,91,0.00,,,0.01,Wunderground v.1.15,2013-01-12 23:56:00,
2013-01-12 19:00:00,47.9,45.1,30.14,North,360,4.0,4.0,90,0.00,,,0.01,Wunderground v.1.15,2013-01-13 00:00:00,
2013-01-12 19:04:00,47.9,45.1,30.13,North,360,4.0,5.0,90,0.00,,,0.01,Wunderground v.1.15,2013-01-13 00:04:00,
2013-01-12 19:08:00,47.8,45.3,30.13,North,360,4.0,5.0,91,0.00,,,0.01,Wunderground v.1.15,2013-01-13 00:08:00,
2013-01-12 19:09:00,47.8,45.3,30.13,North,360,4.0,4.0,91,0.00,,,0.01,Wunderground v.1.15,2013-01-13 00:09:00,
2013-01-12 19:14:00,47.7,45.2,30.13,North,360,3.0,4.0,91,0.00,,,0.01,Wunderground v.1.15,2013-01-13 00:14:00,
2013-01-12 19:16:00,47.7,45.2,30.13,North,360,3.0,4.0,91,0.00,,,0.01,Wunderground v.1.15,2013-01-13 00:16:00,
2013-01-12 19:17:00,47.7,45.2,30.13,North,360,3.0,4.0,91,0.00,,,0.01,Wunderground v.1.15,2013-01-13 00:17:00,
2013-01-12 19:20:00,47.8,45.3,30.13,North,360,3.0,3.0,91,0.00,,,0.01,Wunderground v.1.15,2013-01-13 00:20:00,
2013-01-12 19:24:00,47.6,44.8,30.13,North,360,3.0,3.0,90,0.00,,,0.01,Wunderground v.1.15,2013-01-13 00:24:00,
2013-01-12 19:30:00,47.3,44.8,30.13,North,360,3.0,3.0,91,0.00,,,0.01,Wunderground v.1.15,2013-01-13 00:30:00,
2013-01-12 19:34:00,47.2,44.7,30.13,North,360,2.0,3.0,91,0.00,,,0.01,Wunderground v.1.15,2013-01-13 00:34:00,
2013-01-12 19:36:00,47.1,44.6,30.13,North,360,2.0,3.0,91,0.00,,,0.01,Wunderground v.1.15,2013-01-13 00:36:00,
2013-01-12 19:38:00,47.0,44.5,30.13,North,360,2.0,3.0,91,0.00,,,0.01,Wunderground v.1.15,2013-01-13 00:38:00,
2013-01-12 19:40:00,47.0,44.5,30.13,North,360,2.0,2.0,91,0.00,,,0.01,Wunderground v.1.15,2013-01-13 00:40:00,
2013-01-12 19:42:00,47.0,44.8,30.13,North,360,2.0,2.0,92,0.00,,,0.01,Wunderground v.1.15,2013-01-13 00:42:00,
2013-01-12 19:45:00,47.0,44.8,30.13,North,360,1.0,3.0,92,0.00,,,0.01,Wunderground v.1.15,2013-01-13 00:45:00,
2013-01-12 19:47:00,47.1,44.9,30.12,North,360,1.0,3.0,92,0.00,,,0.01,Wunderground v.1.15,2013-01-13 00:47:00,
2013-01-12 19:52:00,47.3,45.1,30.13,North,360,2.0,2.0,92,0.00,,,0.01,Wunderground v.1.15,2013-01-13 00:52:00,
2013-01-12 19:56:00,47.2,45.0,30.13,North,360,2.0,2.0,92,0.00,,,0.01,Wunderground v.1.15,2013-01-13 00:56:00,
2013-01-12 19:58:00,47.2,45.0,30.13,North,360,2.0,2.0,92,0.00,,,0.01,Wunderground v.1.15,2013-01-13 00:58:00,
2013-01-12 20:01:00,47.2,45.0,30.14,North,360,1.0,2.0,92,0.00,,,0.01,Wunderground v.1.15,2013-01-13 01:01:00,
2013-01-12 20:08:00,47.2,45.0,30.14,North,360,1.0,3.0,92,0.00,,,0.01,Wunderground v.1.15,2013-01-13 01:08:00,
2013-01-12 20:09:00,47.1,44.9,30.14,North,360,2.0,2.0,92,0.00,,,0.01,Wunderground v.1.15,2013-01-13 01:09:00,
2013-01-12 20:14:00,47.0,44.8,30.14,North,360,2.0,2.0,92,0.00,,,0.01,Wunderground v.1.15,2013-01-13 01:14:00,
2013-01-12 20:16:00,47.0,44.8,30.14,North,360,2.0,2.0,92,0.00,,,0.01,Wunderground v.1.15,2013-01-13 01:16:00,
2013-01-12 20:18:00,47.0,44.8,30.14,North,360,1.0,2.0,92,0.00,,,0.01,Wunderground v.1.15,2013-01-13 01:18:00,
2013-01-12 20:24:00,46.9,44.7,30.13,North,360,1.0,2.0,92,0.00,,,0.01,Wunderground v.1.15,2013-01-13 01:24:00,
2013-01-12 20:26:00,46.9,44.7,30.14,North,360,1.0,2.0,92,0.00,,,0.01,Wunderground v.1.15,2013-01-13 01:26:00,
2013-01-12 20:30:00,46.9,44.7,30.13,North,360,1.0,1.0,92,0.00,,,0.01,Wunderground v.1.15,2013-01-13 01:30:00,
2013-01-12 20:32:00,47.0,45.1,30.13,North,360,1.0,3.0,93,0.00,,,0.01,Wunderground v.1.15,2013-01-13 01:32:00,
2013-01-12 20:36:00,47.1,45.2,30.13,North,360,2.0,3.0,93,0.00,,,0.01,Wunderground v.1.15,2013-01-13 01:36:00,
2013-01-12 20:38:00,47.1,45.2,30.13,North,360,2.0,3.0,93,0.00,,,0.01,Wunderground v.1.15,2013-01-13 01:38:00,
2013-01-12 20:44:00,47.0,44.8,30.14,North,360,2.0,4.0,92,0.00,,,0.01,Wunderground v.1.15,2013-01-13 01:44:00,
2013-01-12 20:46:00,46.9,44.7,30.14,North,360,2.0,5.0,92,0.00,,,0.01,Wunderground v.1.15,2013-01-13 01:46:00,
2013-01-12 20:50:00,46.7,44.5,30.13,North,360,3.0,3.0,92,0.00,,,0.01,Wunderground v.1.15,2013-01-13 01:50:00,
2013-01-12 20:54:00,46.6,44.7,30.13,North,360,2.0,3.0,93,0.00,,,0.01,Wunderground v.1.15,2013-01-13 01:54:00,
2013-01-12 20:55:00,46.5,44.6,30.13,North,360,2.0,3.0,93,0.00,,,0.01,Wunderground v.1.15,2013-01-13 01:55:00,
2013-01-12 20:58:00,46.5,44.3,30.13,North,360,2.0,3.0,92,0.00,,,0.01,Wunderground v.1.15,2013-01-13 01:58:00,
2013-01-12 21:00:00,46.4,44.5,30.13,North,360,1.0,1.0,93,0.00,,,0.01,Wunderground v.1.15,2013-01-13 02:00:00,
2013-01-12 21:04:00,46.5,44.6,30.13,North,360,1.0,2.0,93,0.00,,,0.01,Wunderground v.1.15,2013-01-13 02:04:00,
2013-01-12 21:06:00,46.5,44.6,30.13,North,360,1.0,3.0,93,0.00,,,0.01,Wunderground v.1.15,2013-01-13 02:06:00,
2013-01-12 21:10:00,46.7,44.8,30.13,North,360,2.0,3.0,93,0.00,,,0.01,Wunderground v.1.15,2013-01-13 02:10:00,
2013-01-12 21:12:00,46.8,44.9,30.13,North,360,2.0,3.0,93,0.00,,,0.01,Wunderground v.1.15,2013-01-13 02:12:00,
2013-01-12 21:14:00,46.6,44.7,30.12,North,360,3.0,5.0,93,0.00,,,0.01,Wunderground v.1.15,2013-01-13 02:14:00,
2013-01-12 21:16:00,46.4,44.5,30.12,North,360,3.0,5.0,93,0.00,,,0.01,Wunderground v.1.15,2013-01-13 02:16:00,
2013-01-12 21:17:00,46.4,44.5,30.12,North,360,2.0,5.0,93,0.00,,,0.01,Wunderground v.1.15,2013-01-13 02:17:00,
2013-01-12 21:22:00,46.3,44.4,30.12,North,360,2.0,2.0,93,0.00,,,0.01,Wunderground v.1.15,2013-01-13 02:22:00,
2013-01-12 21:24:00,46.2,44.3,30.13,North,360,1.0,2.0,93,0.00,,,0.01,Wunderground v.1.15,2013-01-13 02:24:00,
2013-01-12 21:28:00,46.1,44.2,30.13,North,360,1.0,3.0,93,0.00,,,0.01,Wunderground v.1.15,2013-01-13 02:28:00,
2013-01-12 21:30:00,46.1,44.2,30.13,North,360,2.0,4.0,93,0.00,,,0.01,Wunderground v.1.15,2013-01-13 02:30:00,
2013-01-12 21:32:00,46.0,44.1,30.14,North,360,2.0,5.0,93,0.00,,,0.01,Wunderground v.1.15,2013-01-13 02:32:00,
2013-01-12 21:34:00,45.9,44.0,30.14,North,360,3.0,5.0,93,0.00,,,0.01,Wunderground v.1.15,2013-01-13 02:34:00,
2013-01-12 21:38:00,45.9,44.3,30.14,North,360,3.0,5.0,94,0.00,,,0.01,Wunderground v.1.15,2013-01-13 02:38:00,
2013-01-12 21:39:00,45.9,44.3,30.14,North,360,3.0,4.0,94,0.00,,,0.01,Wunderground v.1.15,2013-01-13 02:39:00,
2013-01-12 21:42:00,45.9,44.3,30.14,North,360,3.0,5.0,94,0.00,,,0.01,Wunderground v.1.15,2013-01-13 02:42:00,
2013-01-12 21:44:00,45.8,44.2,30.14,North,360,3.0,5.0,94,0.00,,,0.01,Wunderground v.1.15,2013-01-13 02:44:00,
2013-01-12 21:46:00,45.7,44.1,30.14,North,360,3.0,5.0,94,0.00,,,0.01,Wunderground v.1.15,2013-01-13 02:46:00,
2013-01-12 21:50:00,45.5,43.9,30.14,North,360,4.0,4.0,94,0.00,,,0.01,Wunderground v.1.15,2013-01-13 02:50:00,
2013-01-12 21:52:00,45.4,43.8,30.14,North,360,4.0,4.0,94,0.00,,,0.01,Wunderground v.1.15,2013-01-13 02:52:00,
2013-01-12 21:54:00,45.4,43.8,30.14,North,360,4.0,4.0,94,0.00,,,0.01,Wunderground v.1.15,2013-01-13 02:54:00,
2013-01-12 21:56:00,45.4,43.8,30.14,North,360,3.0,4.0,94,0.00,,,0.01,Wunderground v.1.15,2013-01-13 02:56:00,
2013-01-12 21:58:00,45.4,43.8,30.13,North,360,3.0,5.0,94,0.00,,,0.01,Wunderground v.1.15,2013-01-13 02:58:00,
2013-01-12 22:01:00,45.2,43.6,30.14,North,360,2.0,3.0,94,0.00,,,0.01,Wunderground v.1.15,2013-01-13 03:01:00,
2013-01-12 22:04:00,45.2,43.6,30.14,North,360,2.0,3.0,94,0.00,,,0.01,Wunderground v.1.15,2013-01-13 03:04:00,
2013-01-12 22:08:00,45.1,43.5,30.13,North,360,3.0,5.0,94,0.00,,,0.01,Wunderground v.1.15,2013-01-13 03:08:00,
2013-01-12 22:10:00,45.1,43.5,30.13,North,360,3.0,4.0,94,0.00,,,0.01,Wunderground v.1.15,2013-01-13 03:10:00,
2013-01-12 22:14:00,45.1,43.5,30.14,North,360,3.0,4.0,94,0.00,,,0.01,Wunderground v.1.15,2013-01-13 03:14:00,
2013-01-12 22:20:00,45.2,43.9,30.13,North,360,3.0,3.0,95,0.00,,,0.01,Wunderground v.1.15,2013-01-13 03:20:00,
2013-01-12 22:24:00,45.1,43.8,30.13,North,360,3.0,3.0,95,0.00,,,0.01,Wunderground v.1.15,2013-01-13 03:24:00,
2013-01-12 22:26:00,45.1,43.8,30.13,North,360,3.0,3.0,95,0.00,,,0.01,Wunderground v.1.15,2013-01-13 03:26:00,
2013-01-12 22:30:00,45.2,43.9,30.13,North,360,2.0,2.0,95,0.00,,,0.01,Wunderground v.1.15,2013-01-13 03:30:00,
2013-01-12 22:31:00,45.2,43.9,30.13,North,360,2.0,2.0,95,0.00,,,0.01,Wunderground v.1.15,2013-01-13 03:31:00,
2013-01-12 22:34:00,45.3,44.0,30.12,North,360,2.0,4.0,95,0.00,,,0.01,Wunderground v.1.15,2013-01-13 03:34:00,
2013-01-12 22:38:00,45.2,43.9,30.13,North,360,2.0,4.0,95,0.00,,,0.01,Wunderground v.1.15,2013-01-13 03:38:00,
2013-01-12 22:40:00,45.2,43.9,30.13,North,360,2.0,4.0,95,0.00,,,0.01,Wunderground v.1.15,2013-01-13 03:40:00,
2013-01-12 22:42:00,45.2,43.9,30.13,North,360,2.0,5.0,95,0.00,,,0.01,Wunderground v.1.15,2013-01-13 03:42:00,
2013-01-12 22:44:00,45.1,43.8,30.13,North,360,2.0,5.0,95,0.00,,,0.01,Wunderground v.1.15,2013-01-13 03:44:00,
2013-01-12 22:45:00,45.1,43.8,30.13,North,360,3.0,5.0,95,0.00,,,0.01,Wunderground v.1.15,2013-01-13 03:45:00,
2013-01-12 22:50:00,45.1,43.8,30.13,North,360,3.0,3.0,95,0.00,,,0.01,Wunderground v.1.15,2013-01-13 03:50:00,
2013-01-12 22:52:00,45.1,43.8,30.13,North,360,3.0,3.0,95,0.00,,,0.01,Wunderground v.1.15,2013-01-13 03:52:00,
2013-01-12 22:54:00,45.1,43.8,30.13,North,360,3.0,4.0,95,0.00,,,0.01,Wunderground v.1.15,2013-01-13 03:54:00,
2013-01-12 22:56:00,45.1,43.8,30.13,North,360,2.0,5.0,95,0.00,,,0.01,Wunderground v.1.15,2013-01-13 03:56:00,
2013-01-12 22:58:00,45.0,43.7,30.13,North,360,2.0,5.0,95,0.00,,,0.01,Wunderground v.1.15,2013-01-13 03:58:00,
2013-01-12 23:01:00,44.9,43.6,30.13,North,360,3.0,5.0,95,0.00,,,0.01,Wunderground v.1.15,2013-01-13 04:01:00,
2013-01-12 23:06:00,44.7,43.4,30.13,North,360,3.0,5.0,95,0.00,,,0.01,Wunderground v.1.15,2013-01-13 04:06:00,
2013-01-12 23:10:00,44.4,43.1,30.13,North,360,3.0,4.0,95,0.00,,,0.01,Wunderground v.1.15,2013-01-13 04:10:00,
2013-01-12 23:12:00,44.3,43.0,30.13,North,360,4.0,4.0,95,0.00,,,0.01,Wunderground v.1.15,2013-01-13 04:12:00,
2013-01-12 23:18:00,44.3,43.0,30.13,North,360,3.0,4.0,95,0.00,,,0.01,Wunderground v.1.15,2013-01-13 04:18:00,
2013-01-12 23:22:00,44.1,42.8,30.13,North,360,3.0,3.0,95,0.00,,,0.01,Wunderground v.1.15,2013-01-13 04:22:00,
2013-01-12 23:24:00,44.1,42.8,30.13,North,360,2.0,3.0,95,0.00,,,0.01,Wunderground v.1.15,2013-01-13 04:24:00,
2013-01-12 23:28:00,44.2,42.9,30.13,North,360,2.0,3.0,95,0.00,,,0.01,Wunderground v.1.15,2013-01-13 04:28:00,
2013-01-12 23:30:00,44.1,42.8,30.13,North,360,2.0,3.0,95,0.00,,,0.01,Wunderground v.1.15,2013-01-13 04:30:00,
2013-01-12 23:32:00,44.1,42.8,30.13,North,360,2.0,3.0,95,0.00,,,0.01,Wunderground v.1.15,2013-01-13 04:32:00,
2013-01-12 23:38:00,44.0,42.7,30.13,North,360,3.0,5.0,95,0.00,,,0.01,Wunderground v.1.15,2013-01-13 04:38:00,
2013-01-12 23:40:00,44.0,42.7,30.13,North,360,3.0,4.0,95,0.00,,,0.01,Wunderground v.1.15,2013-01-13 04:40:00,
2013-01-12 23:44:00,44.0,42.7,30.13,North,360,3.0,4.0,95,0.00,,,0.01,Wunderground v.1.15,2013-01-13 04:44:00,
2013-01-12 23:46:00,44.0,42.7,30.14,North,360,2.0,4.0,95,0.00,,,0.01,Wunderground v.1.15,2013-01-13 04:46:00,
2013-01-12 23:52:00,44.1,42.8,30.14,North,360,2.0,3.0,95,0.00,,,0.01,Wunderground v.1.15,2013-01-13 04:52:00,
2013-01-12 23:54:00,44.1,42.8,30.14,North,360,2.0,3.0,95,0.00,,,0.01,Wunderground v.1.15,2013-01-13 04:54:00,
2013-01-12 23:56:00,44.1,42.8,30.14,North,360,2.0,3.0,95,0.00,,,0.01,Wunderground v.1.15,2013-01-13 04:56:00,
2013-01-12 23:58:00,44.1,42.8,30.14,North,360,2.0,3.0,95,0.00,,,0.01,Wunderground v.1.15,2013-01-13 04:58:00,